Ncc Rabigh — HZQA — position and weather

sailwx.info

Track history (hours):
 
Tides and Currents Weather Stations Pressure Air Temp Water Temp Dewpoint Dewpoint Depression Visibility Wind Speed Wind Dir Waves Ship Positions

Ncc Rabigh

Last reported at 2017-Mar-13 03:31 UTC. Time now 2017-Mar-28 23:31 UTC.
Position N 01°56' E 102°18'.
Warning: this ship's position is 15 days out of date.

Length 183 m; draft 7.5 m.

Type: Ship. MMSI: 403575000.

Date/timePositionNaut miles runAvg speedWind from/ knotsBaromVisibWave heightAir tempDewpointWater temp
2017-Mar-13 03:31N 01°56' E 102°18'1313.1
2017-Mar-13 02:33N 01°51' E 102°29'1312.5
2017-Mar-13 01:33N 01°46' E 102°41'1412.5
2017-Mar-13 00:24N 01°40' E 102°54'1313.3
2017-Mar-12 23:24N 01°33' E 103°05'3014.8
2017-Mar-12 21:22N 01°13' E 103°28'1214.2
2017-Mar-12 20:33N 01°11' E 103°39'3 2.3
2017-Mar-12 19:20N 01°11' E 103°42'0 0.0
2017-Mar-12 18:32N 01°11' E 103°42'0 0.0
2017-Mar-12 17:26N 01°11' E 103°42'0 0.1
2017-Mar-12 16:32N 01°11' E 103°42'0 0.0
2017-Mar-12 15:14N 01°11' E 103°42'0 0.0
2017-Mar-12 14:32N 01°11' E 103°42'0 0.0
2017-Mar-12 13:32N 01°11' E 103°42'0 0.1
2017-Mar-12 12:29N 01°11' E 103°42'0 0.0
2017-Mar-12 11:29N 01°11' E 103°42'0 0.0
2017-Mar-12 10:32N 01°11' E 103°42'0 0.0
2017-Mar-12 09:26N 01°11' E 103°42'0 0.0
2017-Mar-12 08:32N 01°11' E 103°42'0 0.1
2017-Mar-12 07:33N 01°11' E 103°42'6 5.6
2017-Mar-12 06:33N 01°11' E 103°48'1 1.3
2017-Mar-12 05:32N 01°12' E 103°48'0 0.0
2017-Mar-12 04:26N 01°12' E 103°48'0 0.0
2017-Mar-12 03:32N 01°12' E 103°48'0 0.0
2017-Mar-12 02:20N 01°12' E 103°48'0 0.0
2017-Mar-12 01:32N 01°12' E 103°48'0 0.0
2017-Mar-12 00:29N 01°12' E 103°48'0 0.0
2017-Mar-11 23:32N 01°12' E 103°48'0 0.0
2017-Mar-11 22:32N 01°12' E 103°48'0 0.0
2017-Mar-11 21:26N 01°12' E 103°48'0 0.0
2017-Mar-11 20:17N 01°12' E 103°48'0 0.0
2017-Mar-11 19:23N 01°12' E 103°48'0 0.0
2017-Mar-11 18:32N 01°12' E 103°48'0 0.0
2017-Mar-11 17:32N 01°12' E 103°48'0 0.0
2017-Mar-11 16:32N 01°12' E 103°48'0 0.0
2017-Mar-11 15:26N 01°12' E 103°48'0 0.0
2017-Mar-11 14:32N 01°12' E 103°48'0 0.0
2017-Mar-11 13:29N 01°12' E 103°48'0 0.0
2017-Mar-11 12:26N 01°12' E 103°48'0 0.0
2017-Mar-11 11:32N 01°12' E 103°48'0 0.0
2017-Mar-11 10:32N 01°12' E 103°48'0 0.0
2017-Mar-11 09:32N 01°12' E 103°48'0 0.0
2017-Mar-11 08:29N 01°12' E 103°48'0 0.0
2017-Mar-11 07:26N 01°12' E 103°48'0 0.0
2017-Mar-11 06:29N 01°12' E 103°48'0 0.0
2017-Mar-11 05:32N 01°12' E 103°48'0 0.0
2017-Mar-11 04:32N 01°12' E 103°48'0 0.0
2017-Mar-11 03:23N 01°12' E 103°48'0 0.0
2017-Mar-11 02:32N 01°12' E 103°48'0 0.0
2017-Mar-11 01:29N 01°12' E 103°48'0 0.0
2017-Mar-11 00:32N 01°12' E 103°48'1 1.1
2017-Mar-10 23:33N 01°13' E 103°47'7 7.1
2017-Mar-10 22:33N 01°13' E 103°40'2 1.3
2017-Mar-10 21:17N 01°14' E 103°39'0 0.1
2017-Mar-10 20:32N 01°14' E 103°39'0 0.1
2017-Mar-10 19:32N 01°14' E 103°39'0 0.0
2017-Mar-10 18:32N 01°14' E 103°39'2 2.4
2017-Mar-10 17:34N 01°12' E 103°39'8 8.3
2017-Mar-10 16:34N 01°10' E 103°47'1414.3
2017-Mar-10 15:33N 01°16' E 104°01'  
2017-Mar-06 00:25N 20°51' E 118°53'  
Track history (hours):
 
Tides and Currents Weather Stations Pressure Air Temp Water Temp Dewpoint Dewpoint Depression Visibility Wind Speed Wind Dir Waves Ship Positions

Ncc Rabigh

Last reported at 2017-Mar-13 03:31 UTC. Time now 2017-Mar-28 23:31 UTC.
Position N 01°56' E 102°18'.
Warning: this ship's position is 15 days out of date.

Length 183 m; draft 7.5 m.

Type: Ship. MMSI: 403575000.

Date/timePositionNaut miles runAvg speedWind from/ knotsBaromVisibWave heightAir tempDewpointWater temp
2017-Mar-13 03:31N 01°56' E 102°18'1313.1
2017-Mar-13 02:33N 01°51' E 102°29'1312.5
2017-Mar-13 01:33N 01°46' E 102°41'1412.5
2017-Mar-13 00:24N 01°40' E 102°54'1313.3
2017-Mar-12 23:24N 01°33' E 103°05'3014.8
2017-Mar-12 21:22N 01°13' E 103°28'1214.2
2017-Mar-12 20:33N 01°11' E 103°39'3 2.3
2017-Mar-12 19:20N 01°11' E 103°42'0 0.0
2017-Mar-12 18:32N 01°11' E 103°42'0 0.0
2017-Mar-12 17:26N 01°11' E 103°42'0 0.1
2017-Mar-12 16:32N 01°11' E 103°42'0 0.0
2017-Mar-12 15:14N 01°11' E 103°42'0 0.0
2017-Mar-12 14:32N 01°11' E 103°42'0 0.0
2017-Mar-12 13:32N 01°11' E 103°42'0 0.1
2017-Mar-12 12:29N 01°11' E 103°42'0 0.0
2017-Mar-12 11:29N 01°11' E 103°42'0 0.0
2017-Mar-12 10:32N 01°11' E 103°42'0 0.0
2017-Mar-12 09:26N 01°11' E 103°42'0 0.0
2017-Mar-12 08:32N 01°11' E 103°42'0 0.1
2017-Mar-12 07:33N 01°11' E 103°42'6 5.6
2017-Mar-12 06:33N 01°11' E 103°48'1 1.3
2017-Mar-12 05:32N 01°12' E 103°48'0 0.0
2017-Mar-12 04:26N 01°12' E 103°48'0 0.0
2017-Mar-12 03:32N 01°12' E 103°48'0 0.0
2017-Mar-12 02:20N 01°12' E 103°48'0 0.0
2017-Mar-12 01:32N 01°12' E 103°48'0 0.0
2017-Mar-12 00:29N 01°12' E 103°48'0 0.0
2017-Mar-11 23:32N 01°12' E 103°48'0 0.0
2017-Mar-11 22:32N 01°12' E 103°48'0 0.0
2017-Mar-11 21:26N 01°12' E 103°48'0 0.0
2017-Mar-11 20:17N 01°12' E 103°48'0 0.0
2017-Mar-11 19:23N 01°12' E 103°48'0 0.0
2017-Mar-11 18:32N 01°12' E 103°48'0 0.0
2017-Mar-11 17:32N 01°12' E 103°48'0 0.0
2017-Mar-11 16:32N 01°12' E 103°48'0 0.0
2017-Mar-11 15:26N 01°12' E 103°48'0 0.0
2017-Mar-11 14:32N 01°12' E 103°48'0 0.0
2017-Mar-11 13:29N 01°12' E 103°48'0 0.0
2017-Mar-11 12:26N 01°12' E 103°48'0 0.0
2017-Mar-11 11:32N 01°12' E 103°48'0 0.0
2017-Mar-11 10:32N 01°12' E 103°48'0 0.0
2017-Mar-11 09:32N 01°12' E 103°48'0 0.0
2017-Mar-11 08:29N 01°12' E 103°48'0 0.0
2017-Mar-11 07:26N 01°12' E 103°48'0 0.0
2017-Mar-11 06:29N 01°12' E 103°48'0 0.0
2017-Mar-11 05:32N 01°12' E 103°48'0 0.0
2017-Mar-11 04:32N 01°12' E 103°48'0 0.0
2017-Mar-11 03:23N 01°12' E 103°48'0 0.0
2017-Mar-11 02:32N 01°12' E 103°48'0 0.0
2017-Mar-11 01:29N 01°12' E 103°48'0 0.0
2017-Mar-11 00:32N 01°12' E 103°48'1 1.1
2017-Mar-10 23:33N 01°13' E 103°47'7 7.1
2017-Mar-10 22:33N 01°13' E 103°40'2 1.3
2017-Mar-10 21:17N 01°14' E 103°39'0 0.1
2017-Mar-10 20:32N 01°14' E 103°39'0 0.1
2017-Mar-10 19:32N 01°14' E 103°39'0 0.0
2017-Mar-10 18:32N 01°14' E 103°39'2 2.4
2017-Mar-10 17:34N 01°12' E 103°39'8 8.3
2017-Mar-10 16:34N 01°10' E 103°47'1414.3
2017-Mar-10 15:33N 01°16' E 104°01'  
2017-Mar-06 00:25N 20°51' E 118°53'  

Dump ship's entire track history